Como, CO (80432)

9:12 PM MDT on September 01, 2015 (GMT -0600)
Stanley Ridge @ Indian Mtn | | Change Station
CLOSE
Current Station
Personal Weather Station
Location: Como, CO
Elevation: 9784 ft
Nearby Weather Stations

Elev 9784 ft 39.25 °N, 105.79 °W | Updated 12 minutes ago

Rain
Rain
46.6 °F
Feels Like 47 °F
N
3.0
Wind Variable Wind from WSW
Gusts 8.0 mph

Today
High -- | Low -- °F
--% Chance of Precip.
Yesterday
High -- | Low -- °F
Precip. -- in
6:31 AM 7:34 PM
Waning Gibbous, 84% visible
Pressure 30.01 in
Visibility 10.0 miles
Clouds Mostly Cloudy 5000 ft
Mostly Cloudy 7000 ft
Windchill 47 °F
Dew Point 44 °F
Humidity 89%
Rainfall 0.14 in
Snow Depth Not available.
UV 0 out of 12
Pollen 9.90 out of 12
Air Quality Not available.
Flu Activity Not available.
METAR KLXV 020253Z AUTO 12005KT 10SM BKN050 BKN070 09/06 A3046 RMK AO2 LTG DSNT E RAE43 SLP160 P0000 60001 T00890061 51015
Pressure 30.01 in
Visibility 10.0 miles
Clouds Mostly Cloudy 5000 ft
Mostly Cloudy 7000 ft
Windchill 47 °F
Dew Point 44 °F
Humidity 89%
Rainfall 0.14 in
Snow Depth Not available.
UV 0 out of 12
Pollen 9.90 out of 12
Air Quality Not available.
Flu Activity Not available.
METAR KLXV 020253Z AUTO 12005KT 10SM BKN050 BKN070 09/06 A3046 RMK AO2 LTG DSNT E RAE43 SLP160 P0000 60001 T00890061 51015

10-Day Weather Forecast

×

Almanac

Astronomy

Sep. 01, 2015 Rise Set
Actual Time
Civil Twilight
Nautical Twilight
Astronomical Twilight
Moon
Length of Visible Light
Length of Day
Tomorrow will be .
, % of the Moon is Illuminated

Today's Extremes

State Highs State Lows

Community

WunderPhotos

Upload Photos

1,851,682 photos uploaded!

WunderBlogs® & News

Nearby

Air Quality

  Air Quality AQ Index Pollutant
Not available.

Snow Depth

Station Depth Elevation

Earthquake Activity

City Distance Mag. Time & Date
Minimum magnitude displayed is 2.5.

Coastal Water Temperatures

Place Temperature

Stations

Nearby Weather Stations

Station Location Temp. Windchill Dew Point Humidity Wind Precip. Elev Updated Type